Latest Weather Observations for Hervey Bay

IDQ60801

Issued at 1:02 pm EST Sunday 30 April 2017 (issued every 30 minutes, with the page automatically refreshed every 10 minutes)

About weather observations | Map of weather stations | Latest weather observations for QLD | Other Formats
Station Details ID: 040405 Name: HERVEY BAY AIRPORT Lat: -25.32 Lon: 152.88 Height: 12.98 m
Data from the previous 72 hours. | See also: Recent months at Hervey Bay
Date/Time
EST
Temp
°C
App
Temp
°C
Dew
Point
°C
Rel
Hum
%
Delta-T
°C
Wind Press
QNH
hPa
Press
MSL
hPa
Rain since
9am
mm
Dir  Spd
km/h
Gust
km/h
Spd
kts
Gust
kts
30/01:00pm 25.3 23.5 15.9 56 5.7 SE 20 35 11 19 1017.6 1017.5 0.0
30/12:30pm 24.7 22.7 15.6 57 5.5 SSE 20 30 11 16 1017.7 1017.6 0.0
30/12:00pm 25.2 24.1 17.4 62 4.9 S 19 26 10 14 1018.2 1018.1 0.0
30/11:30am 23.6 23.0 16.6 65 4.3 S 15 24 8 13 1018.6 1018.5 0.0
30/11:00am 23.4 22.6 17.2 68 3.8 SSW 17 26 9 14 1019.1 1019.0 0.0
30/10:30am 21.2 21.0 16.8 76 2.7 SSW 13 20 7 11 1019.6 1019.5 0.0
30/10:00am 20.8 20.2 16.6 77 2.5 SSW 15 26 8 14 1019.7 1019.6 0.0
30/09:30am 20.5 18.8 15.7 74 2.9 S 19 30 10 16 1020.0 1019.9 0.0
30/09:00am 21.4 19.8 16.4 73 3.0 SSW 20 30 11 16 1019.7 1019.6 0.0
30/08:30am 18.9 17.8 15.2 79 2.2 SSW 15 20 8 11 1019.5 1019.4 0.0
30/08:00am 18.1 16.4 14.8 81 1.9 SSW 17 20 9 11 1019.4 1019.3 0.0
30/07:30am 16.3 15.2 14.3 88 1.1 SSW 13 15 7 8 1019.2 1019.1 0.0
30/07:00am 15.6 14.7 13.8 89 1.0 SSW 11 15 6 8 1018.9 1018.8 0.0
30/06:30am 15.4 14.5 13.8 90 0.9 SSW 11 15 6 8 1018.6 1018.5 0.0
30/06:00am 15.4 14.5 13.6 89 1.0 SW 11 15 6 8 1018.3 1018.2 0.0
30/05:30am 15.4 14.1 13.6 89 1.0 SW 13 17 7 9 1017.9 1017.8 0.0
30/05:00am 15.1 13.7 13.5 90 0.9 SW 13 19 7 10 1017.8 1017.7 0.0
30/04:30am 15.1 14.1 13.5 90 0.9 SW 11 15 6 8 1017.4 1017.3 0.0
30/04:00am 15.2 13.9 13.7 91 0.8 SW 13 15 7 8 1017.2 1017.1 0.0
30/03:30am 15.3 14.4 13.8 91 0.8 SW 11 13 6 7 1017.2 1017.1 0.0
30/03:00am 15.4 14.6 13.9 91 0.8 SW 11 15 6 8 1017.0 1016.9 0.0
30/02:30am 15.6 14.4 14.0 90 0.9 SW 13 15 7 8 1017.1 1017.0 0.0
30/02:00am 15.7 14.9 14.1 90 0.9 SW 11 13 6 7 1017.4 1017.3 0.0
30/01:30am 15.8 14.7 14.2 90 0.9 SW 13 15 7 8 1017.5 1017.4 0.0
30/01:00am 15.8 15.1 14.3 91 0.9 SSW 11 17 6 9 1017.6 1017.5 0.0
30/12:30am 15.7 14.9 14.1 90 0.9 SSW 11 13 6 7 1017.7 1017.6 0.0
30/12:00am 15.9 15.2 14.4 91 0.9 SW 11 13 6 7 1017.8 1017.7 0.0
 
Date/Time
EST
Temp
°C
App
Temp
°C
Dew
Point
°C
Rel
Hum
%
Delta-T
°C
Wind Press
QNH
hPa
Press
MSL
hPa
Rain since
9am
mm
Dir  Spd
km/h
Gust
km/h
Spd
kts
Gust
kts
29/11:30pm 15.8 15.2 14.5 92 0.7 SW 11 13 6 7 1018.1 1018.0 0.0
29/11:00pm 15.4 15.4 14.1 92 0.7 SW 7 9 4 5 1018.1 1018.0 0.0
29/10:30pm 14.9 14.5 12.9 88 1.1 SW 7 7 4 4 1018.2 1018.1 0.0
29/10:00pm 15.4 15.1 13.2 87 1.2 SW 7 9 4 5 1018.2 1018.1 0.0
29/09:30pm 17.1 16.7 14.0 82 1.8 SSE 9 11 5 6 1018.1 1018.0 0.0
29/09:00pm 19.2 19.2 15.3 78 2.3 SSE 9 13 5 7 1018.2 1018.1 0.0
29/08:30pm 16.2 16.1 14.0 87 1.2 SE 7 13 4 7 1018.1 1018.0 0.0
29/08:00pm 17.0 17.0 14.3 84 1.5 SE 7 9 4 5 1018.0 1017.9 0.0
29/07:30pm 18.4 18.5 14.5 78 2.3 SSE 7 9 4 5 1018.1 1018.0 0.0
29/07:00pm 19.1 19.3 14.8 76 2.5 SSE 7 9 4 5 1017.9 1017.8 0.0
29/06:30pm 19.7 19.6 14.9 74 2.8 SE 9 13 5 7 1017.7 1017.6 0.0
29/06:00pm 20.2 20.1 15.0 72 3.1 SE 9 13 5 7 1017.5 1017.4 0.0
29/05:30pm 20.9 20.1 15.0 69 3.5 SE 13 19 7 10 1017.2 1017.1 0.0
29/05:00pm 21.7 20.1 13.9 61 4.5 SE 15 24 8 13 1017.0 1016.9 0.0
29/04:30pm 22.8 21.1 13.6 56 5.3 SE 15 24 8 13 1016.8 1016.7 0.0
29/04:00pm 23.5 20.7 12.5 50 6.3 SE 19 30 10 16 1016.5 1016.4 0.0
29/03:30pm 24.0 22.7 14.7 56 5.5 SE 15 24 8 13 1016.4 1016.3 0.0
29/03:00pm 24.5 22.3 14.9 55 5.7 ESE 20 28 11 15 1016.3 1016.2 0.0
29/02:30pm 24.3 22.1 15.0 56 5.6 SE 20 30 11 16 1016.2 1016.1 0.0
29/02:00pm 24.4 22.3 15.1 56 5.6 SE 20 30 11 16 1016.6 1016.5 0.0
29/01:30pm 24.6 22.5 14.7 54 5.9 SE 19 28 10 15 1016.7 1016.6 0.0
29/01:00pm 24.6 22.5 15.2 55 5.6 SE 20 35 11 19 1016.8 1016.7 0.0
29/12:30pm 25.1 23.5 16.0 57 5.5 SSE 19 33 10 18 1017.3 1017.2 0.0
29/12:00pm 24.1 22.2 15.1 57 5.4 S 19 32 10 17 1017.7 1017.6 0.0
29/11:30am 23.5 21.1 14.5 57 5.3 S 20 32 11 17 1018.0 1017.9 0.0
29/11:00am 23.5 21.4 15.3 60 4.9 S 20 33 11 18 1018.3 1018.2 0.0
29/10:30am 22.5 19.2 14.1 59 4.9 S 24 35 13 19 1018.5 1018.4 0.0
29/10:00am 22.1 18.6 14.5 62 4.5 S 26 37 14 20 1018.5 1018.4 0.0
29/09:30am 21.5 18.3 14.2 63 4.3 S 24 37 13 20 1018.4 1018.3 0.0
29/09:00am 19.9 17.5 13.8 68 3.5 SSW 19 28 10 15 1018.3 1018.2 0.0
29/08:30am 20.0 17.6 13.7 67 3.6 SSW 19 35 10 19 1018.2 1018.1 0.0
29/08:00am 19.4 16.9 13.6 69 3.3 SSW 19 28 10 15 1017.9 1017.8 0.0
29/07:30am 18.4 15.6 13.3 72 2.9 SSW 20 32 11 17 1017.4 1017.3 0.0
29/07:00am 17.5 14.8 12.8 74 2.6 SSW 19 28 10 15 1017.2 1017.1 0.0
29/06:30am 16.8 14.5 12.9 78 2.2 SSW 17 22 9 12 1016.7 1016.6 0.0
29/06:00am 16.1 14.0 12.5 79 2.0 SSW 15 24 8 13 1016.2 1016.1 0.0
29/05:30am 16.2 14.1 12.4 78 2.1 SSW 15 20 8 11 1016.1 1016.0 0.0
29/05:00am 16.0 14.3 12.6 80 1.9 SW 13 17 7 9 1015.7 1015.6 0.0
29/04:30am 16.0 14.3 12.4 79 2.0 SSW 13 20 7 11 1015.3 1015.2 0.0
29/04:00am 16.4 14.7 12.4 77 2.2 SSW 13 20 7 11 1015.3 1015.2 0.0
29/03:30am 16.8 15.1 12.5 76 2.4 SW 13 17 7 9 1015.3 1015.2 0.0
29/03:00am 16.5 15.5 12.3 76 2.3 SW 9 15 5 8 1015.3 1015.2 0.0
29/02:30am 16.7 14.6 12.3 75 2.4 SSW 15 20 8 11 1015.3 1015.2 0.0
29/02:00am 16.3 14.2 12.3 77 2.2 SSW 15 17 8 9 1015.5 1015.4 0.0
29/01:30am 16.4 15.0 12.2 76 2.3 SSW 11 15 6 8 1015.8 1015.7 0.0
29/01:00am 16.7 15.5 12.7 77 2.2 SSW 11 13 6 7 1016.2 1016.1 0.0
29/12:30am 15.6 14.7 12.5 82 1.7 SSW 9 13 5 7 1016.4 1016.3 0.0
29/12:00am 15.4 15.2 12.9 85 1.4 SSW 6 9 3 5 1016.5 1016.4 0.0
 
Date/Time
EST
Temp
°C
App
Temp
°C
Dew
Point
°C
Rel
Hum
%
Delta-T
°C
Wind Press
QNH
hPa
Press
MSL
hPa
Rain since
9am
mm
Dir  Spd
km/h
Gust
km/h
Spd
kts
Gust
kts
28/11:30pm 15.7 14.8 12.6 82 1.7 SSW 9 11 5 6 1016.6 1016.5 0.0
28/11:00pm 15.7 15.4 13.4 86 1.3 SSW 7 9 4 5 1016.6 1016.5 0.0
28/10:30pm 16.0 15.5 13.7 86 1.3 SSW 9 9 5 5 1016.9 1016.8 0.0
28/10:00pm 15.8 15.7 14.0 89 1.0 SW 7 9 4 5 1016.8 1016.7 0.0
28/09:30pm 15.5 15.4 14.0 91 0.8 SSW 7 9 4 5 1016.8 1016.7 0.0
28/09:00pm 15.4 15.5 13.8 90 0.9 SW 6 7 3 4 1016.6 1016.5 0.0
28/08:30pm 15.8 15.8 14.3 91 0.9 SW 7 9 4 5 1016.4 1016.3 0.0
28/08:00pm 15.3 16.3 13.3 88 1.1 CALM 0 0 0 0 1016.3 1016.2 0.0
28/07:30pm 15.5 15.3 13.0 85 1.4 SSW 6 7 3 4 1016.1 1016.0 0.0
28/07:00pm 16.4 16.7 13.3 82 1.7 SSW 4 6 2 3 1016.0 1015.9 0.0
28/06:30pm 18.7 18.7 13.6 72 2.9 S 6 9 3 5 1015.6 1015.5 0.0
28/06:00pm 19.7 19.1 13.4 67 3.6 SE 9 13 5 7 1015.2 1015.1 0.0
28/05:30pm 20.3 19.6 13.3 64 4.0 SE 9 15 5 8 1014.8 1014.7 0.0
28/05:00pm 21.6 20.7 12.7 57 5.1 SE 9 13 5 7 1014.3 1014.2 0.0
28/04:30pm 22.9 21.2 11.3 48 6.5 SSE 11 15 6 8 1014.2 1014.1 0.0
28/04:00pm 23.7 21.9 10.7 44 7.2 S 11 17 6 9 1013.9 1013.8 0.0
28/03:30pm 23.7 21.4 10.4 43 7.3 S 13 20 7 11 1013.7 1013.6 0.0
28/03:00pm 23.7 20.6 10.4 43 7.3 SSE 17 26 9 14 1013.8 1013.7 0.0
28/02:30pm 23.6 20.5 10.3 43 7.3 S 17 30 9 16 1013.8 1013.7 0.0
28/02:00pm 23.5 20.3 9.9 42 7.4 S 17 26 9 14 1013.8 1013.7 0.0
28/01:30pm 23.0 18.8 9.8 43 7.2 S 22 37 12 20 1014.1 1014.0 0.0
28/01:00pm 22.8 19.2 9.9 44 7.0 S 19 32 10 17 1014.3 1014.2 0.0
28/12:30pm 22.4 18.7 10.2 46 6.7 SSW 20 32 11 17 1014.5 1014.4 0.0
28/12:00pm 22.1 18.4 9.3 44 6.9 S 19 26 10 14 1014.7 1014.6 0.0
28/11:30am 21.4 17.8 9.9 48 6.2 S 19 30 10 16 1015.4 1015.3 0.0
28/11:00am 20.2 16.3 8.8 48 6.0 S 19 28 10 15 1016.0 1015.9 0.0
28/10:30am 19.9 15.9 9.2 50 5.7 S 20 32 11 17 1016.2 1016.1 0.0
28/10:00am 19.1 15.7 9.0 52 5.3 SSW 17 30 9 16 1016.4 1016.3 0.0
28/09:30am 17.9 14.0 8.5 54 4.8 SSW 19 30 10 16 1016.5 1016.4 0.0
28/09:00am 16.5 12.2 7.2 54 4.6 SSW 19 26 10 14 1016.4 1016.3 0.2
28/08:30am 15.2 11.4 7.5 60 3.8 SSW 17 24 9 13 1016.5 1016.4 0.2
28/08:00am 13.6 9.3 7.2 65 3.1 SW 19 26 10 14 1016.2 1016.1 0.2
28/07:30am 12.5 9.1 6.1 65 3.0 SW 13 19 7 10 1016.0 1015.9 0.2
28/07:00am 11.6 7.8 5.7 67 2.7 SW 15 20 8 11 1015.5 1015.4 0.2
28/06:30am 10.6 7.6 5.8 72 2.2 SW 11 13 6 7 1015.2 1015.1 0.2
28/06:00am 10.3 7.1 5.3 71 2.3 SW 11 15 6 8 1014.8 1014.7 0.2
28/05:30am 10.5 7.7 5.3 70 2.4 SW 9 15 5 8 1014.4 1014.3 0.2
28/05:00am 10.7 7.9 5.3 69 2.5 WSW 9 11 5 6 1014.2 1014.1 0.2
28/04:30am 11.2 8.0 5.1 66 2.8 SW 11 15 6 8 1014.1 1014.0 0.2
28/04:00am 11.4 7.8 5.1 65 2.9 SW 13 17 7 9 1014.1 1014.0 0.2
28/03:30am 11.7 8.5 5.3 65 2.9 SW 11 17 6 9 1014.1 1014.0 0.2
28/03:00am 11.9 8.3 5.1 63 3.1 WSW 13 17 7 9 1014.3 1014.2 0.2
28/02:30am 12.2 8.7 5.4 63 3.2 WSW 13 22 7 12 1014.7 1014.6 0.2
28/02:00am 12.2 9.1 5.6 64 3.1 WSW 11 15 6 8 1014.7 1014.6 0.2
28/01:30am 12.9 9.0 5.3 60 3.5 SW 15 20 8 11 1014.9 1014.8 0.2
28/01:00am 13.4 9.6 5.6 59 3.7 SW 15 20 8 11 1015.2 1015.1 0.2
28/12:30am 13.7 9.9 5.6 58 3.8 WSW 15 20 8 11 1015.4 1015.3 0.2
28/12:00am 13.6 10.2 5.7 59 3.7 WSW 13 20 7 11 1015.4 1015.3 0.2
 
Date/Time
EST
Temp
°C
App
Temp
°C
Dew
Point
°C
Rel
Hum
%
Delta-T
°C
Wind Press
QNH
hPa
Press
MSL
hPa
Rain since
9am
mm
Dir  Spd
km/h
Gust
km/h
Spd
kts
Gust
kts
27/11:30pm 13.9 10.6 6.3 60 3.6 WSW 13 19 7 10 1015.5 1015.4 0.2
27/11:00pm 13.9 11.0 6.3 60 3.6 WSW 11 17 6 9 1015.5 1015.4 0.2
27/10:30pm 14.6 11.3 6.4 58 4.0 WSW 13 22 7 12 1015.7 1015.6 0.2
27/10:00pm 15.0 11.7 6.6 57 4.1 WSW 13 17 7 9 1015.6 1015.5 0.2
27/09:30pm 14.6 12.2 7.2 61 3.6 SW 9 13 5 7 1015.4 1015.3 0.2
27/09:00pm 15.6 12.8 6.9 56 4.3 SW 11 15 6 8 1015.4 1015.3 0.2
27/08:30pm 15.4 13.6 7.9 61 3.8 SW 7 11 4 6 1015.0 1014.9 0.2
27/08:00pm 15.6 13.5 8.4 62 3.6 SW 9 13 5 7 1015.0 1014.9 0.2
27/07:30pm 15.0 13.8 10.4 74 2.4 SW 7 11 4 6 1014.8 1014.7 0.2
27/07:00pm 15.2 14.0 10.4 73 2.5 WSW 7 11 4 6 1014.2 1014.1 0.2
27/06:30pm 15.5 13.9 10.3 71 2.7 WSW 9 11 5 6 1013.6 1013.5 0.2
27/06:00pm 16.7 15.2 10.5 67 3.3 WSW 9 13 5 7 1013.1 1013.0 0.2
27/05:30pm 18.5 16.5 8.5 52 5.2 WSW 9 11 5 6 1012.8 1012.7 0.2
27/05:00pm 21.0 18.3 7.3 41 7.0 WSW 11 20 6 11 1012.5 1012.4 0.2
27/04:30pm 22.4 19.1 6.6 36 8.1 WSW 13 22 7 12 1012.1 1012.0 0.2
27/04:00pm 22.8 19.6 7.0 36 8.2 WSW 13 20 7 11 1011.8 1011.7 0.2
27/03:30pm 22.8 19.2 6.6 35 8.3 WSW 15 20 8 11 1011.6 1011.5 0.2
27/03:00pm 23.1 18.6 6.0 33 8.7 WSW 19 26 10 14 1011.7 1011.6 0.2
27/02:30pm 23.1 18.4 6.0 33 8.7 WSW 20 28 11 15 1011.7 1011.6 0.2
27/02:00pm 23.5 20.0 7.2 35 8.5 SW 15 20 8 11 1011.5 1011.4 0.2
27/01:30pm 22.5 19.5 9.3 43 7.1 WSW 15 22 8 12 1011.9 1011.8 0.2

Other Formats:

Comma delimited format used in spreadsheet applications
http://www.bom.gov.au/fwo/IDQ60801/IDQ60801.95565.axf

JavaScript Object Notation format (JSON) in row-major order
http://www.bom.gov.au/fwo/IDQ60801/IDQ60801.95565.json